sensor_id;sensor_type;location;lat;lon;timestamp;P1;durP1;ratioP1;P2;durP2;ratioP2
43626;SDS011;29217;52.586;13.442;2023-12-04T00:00:08;20.05;;;9.98;;
43626;SDS011;29217;52.586;13.442;2023-12-04T00:02:35;30.02;;;10.52;;
43626;SDS011;29217;52.586;13.442;2023-12-04T00:05:01;20.27;;;8.73;;
43626;SDS011;29217;52.586;13.442;2023-12-04T00:07:27;22.77;;;10.20;;
43626;SDS011;29217;52.586;13.442;2023-12-04T00:09:53;29.20;;;10.88;;
43626;SDS011;29217;52.586;13.442;2023-12-04T00:12:19;23.40;;;8.93;;
43626;SDS011;29217;52.586;13.442;2023-12-04T00:14:45;20.08;;;8.00;;
43626;SDS011;29217;52.586;13.442;2023-12-04T00:17:11;19.00;;;7.70;;
43626;SDS011;29217;52.586;13.442;2023-12-04T00:19:37;15.27;;;7.43;;
43626;SDS011;29217;52.586;13.442;2023-12-04T00:22:03;10.60;;;6.70;;
43626;SDS011;29217;52.586;13.442;2023-12-04T00:24:29;20.83;;;8.13;;
43626;SDS011;29217;52.586;13.442;2023-12-04T00:26:55;14.57;;;6.97;;
43626;SDS011;29217;52.586;13.442;2023-12-04T00:29:21;23.13;;;7.35;;
43626;SDS011;29217;52.586;13.442;2023-12-04T00:31:47;19.73;;;9.18;;
43626;SDS011;29217;52.586;13.442;2023-12-04T00:34:12;21.30;;;8.25;;
43626;SDS011;29217;52.586;13.442;2023-12-04T00:36:38;23.75;;;8.25;;
43626;SDS011;29217;52.586;13.442;2023-12-04T00:39:04;24.15;;;7.78;;
43626;SDS011;29217;52.586;13.442;2023-12-04T00:41:30;12.43;;;7.43;;
43626;SDS011;29217;52.586;13.442;2023-12-04T00:43:57;14.45;;;8.27;;
43626;SDS011;29217;52.586;13.442;2023-12-04T00:46:23;16.77;;;6.30;;
43626;SDS011;29217;52.586;13.442;2023-12-04T00:48:49;16.30;;;7.63;;
43626;SDS011;29217;52.586;13.442;2023-12-04T00:51:15;14.48;;;7.15;;
43626;SDS011;29217;52.586;13.442;2023-12-04T00:53:41;13.57;;;6.03;;
43626;SDS011;29217;52.586;13.442;2023-12-04T00:56:07;16.05;;;6.22;;
43626;SDS011;29217;52.586;13.442;2023-12-04T00:58:33;21.40;;;7.72;;
43626;SDS011;29217;52.586;13.442;2023-12-04T01:00:59;16.33;;;8.20;;
43626;SDS011;29217;52.586;13.442;2023-12-04T01:03:25;18.02;;;8.50;;
43626;SDS011;29217;52.586;13.442;2023-12-04T01:05:51;14.57;;;7.78;;
43626;SDS011;29217;52.586;13.442;2023-12-04T01:08:17;12.93;;;7.32;;
43626;SDS011;29217;52.586;13.442;2023-12-04T01:10:43;11.68;;;7.10;;
43626;SDS011;29217;52.586;13.442;2023-12-04T01:13:09;12.43;;;6.60;;
43626;SDS011;29217;52.586;13.442;2023-12-04T01:15:35;18.77;;;7.43;;
43626;SDS011;29217;52.586;13.442;2023-12-04T01:18:01;13.88;;;7.00;;
43626;SDS011;29217;52.586;13.442;2023-12-04T01:20:27;20.65;;;6.88;;
43626;SDS011;29217;52.586;13.442;2023-12-04T01:22:53;16.30;;;7.13;;
43626;SDS011;29217;52.586;13.442;2023-12-04T01:25:19;17.42;;;8.15;;
43626;SDS011;29217;52.586;13.442;2023-12-04T01:27:45;17.48;;;7.97;;
43626;SDS011;29217;52.586;13.442;2023-12-04T01:30:11;13.13;;;7.45;;
43626;SDS011;29217;52.586;13.442;2023-12-04T01:32:39;21.70;;;8.15;;
43626;SDS011;29217;52.586;13.442;2023-12-04T01:35:05;10.10;;;5.45;;
43626;SDS011;29217;52.586;13.442;2023-12-04T01:37:31;13.43;;;6.53;;
43626;SDS011;29217;52.586;13.442;2023-12-04T01:39:57;17.05;;;7.28;;
43626;SDS011;29217;52.586;13.442;2023-12-04T01:42:23;19.23;;;7.05;;
43626;SDS011;29217;52.586;13.442;2023-12-04T01:44:49;19.17;;;8.60;;
43626;SDS011;29217;52.586;13.442;2023-12-04T01:47:15;17.58;;;9.02;;
43626;SDS011;29217;52.586;13.442;2023-12-04T01:49:41;18.23;;;10.20;;
43626;SDS011;29217;52.586;13.442;2023-12-04T01:52:08;28.67;;;13.98;;
43626;SDS011;29217;52.586;13.442;2023-12-04T01:54:35;44.92;;;16.33;;
43626;SDS011;29217;52.586;13.442;2023-12-04T01:57:02;26.63;;;14.13;;
43626;SDS011;29217;52.586;13.442;2023-12-04T01:59:28;25.42;;;11.32;;
43626;SDS011;29217;52.586;13.442;2023-12-04T02:01:54;19.45;;;8.93;;
43626;SDS011;29217;52.586;13.442;2023-12-04T02:04:21;23.42;;;10.30;;
43626;SDS011;29217;52.586;13.442;2023-12-04T02:06:47;23.33;;;8.90;;
43626;SDS011;29217;52.586;13.442;2023-12-04T02:09:13;17.80;;;7.93;;
43626;SDS011;29217;52.586;13.442;2023-12-04T02:11:41;22.05;;;8.95;;
43626;SDS011;29217;52.586;13.442;2023-12-04T02:14:07;18.50;;;9.00;;
43626;SDS011;29217;52.586;13.442;2023-12-04T02:16:35;16.05;;;7.60;;
43626;SDS011;29217;52.586;13.442;2023-12-04T02:19:05;13.15;;;7.38;;
43626;SDS011;29217;52.586;13.442;2023-12-04T02:21:32;13.73;;;7.15;;
43626;SDS011;29217;52.586;13.442;2023-12-04T02:23:58;16.65;;;7.55;;
43626;SDS011;29217;52.586;13.442;2023-12-04T02:26:28;14.20;;;6.43;;
43626;SDS011;29217;52.586;13.442;2023-12-04T02:28:58;22.30;;;8.00;;
43626;SDS011;29217;52.586;13.442;2023-12-04T02:31:24;18.40;;;8.23;;
43626;SDS011;29217;52.586;13.442;2023-12-04T02:33:55;15.27;;;8.55;;
43626;SDS011;29217;52.586;13.442;2023-12-04T02:36:21;16.92;;;8.90;;
43626;SDS011;29217;52.586;13.442;2023-12-04T02:38:48;11.60;;;6.65;;
43626;SDS011;29217;52.586;13.442;2023-12-04T02:41:14;22.85;;;8.15;;
43626;SDS011;29217;52.586;13.442;2023-12-04T02:43:42;15.68;;;7.82;;
43626;SDS011;29217;52.586;13.442;2023-12-04T02:46:08;14.98;;;7.53;;
43626;SDS011;29217;52.586;13.442;2023-12-04T02:48:34;15.05;;;7.18;;
43626;SDS011;29217;52.586;13.442;2023-12-04T02:50:59;15.07;;;7.82;;
43626;SDS011;29217;52.586;13.442;2023-12-04T02:53:26;17.27;;;8.43;;
43626;SDS011;29217;52.586;13.442;2023-12-04T02:55:52;10.82;;;7.05;;
43626;SDS011;29217;52.586;13.442;2023-12-04T02:58:18;20.95;;;9.23;;
43626;SDS011;29217;52.586;13.442;2023-12-04T03:00:44;22.08;;;8.23;;
43626;SDS011;29217;52.586;13.442;2023-12-04T03:03:10;20.77;;;8.25;;
43626;SDS011;29217;52.586;13.442;2023-12-04T03:05:36;20.08;;;9.80;;
43626;SDS011;29217;52.586;13.442;2023-12-04T03:08:02;14.13;;;7.22;;
43626;SDS011;29217;52.586;13.442;2023-12-04T03:10:28;17.33;;;7.65;;
43626;SDS011;29217;52.586;13.442;2023-12-04T03:12:54;26.08;;;11.18;;
43626;SDS011;29217;52.586;13.442;2023-12-04T03:15:20;16.08;;;8.27;;
43626;SDS011;29217;52.586;13.442;2023-12-04T03:17:46;23.83;;;9.38;;
43626;SDS011;29217;52.586;13.442;2023-12-04T03:20:12;18.15;;;9.35;;
43626;SDS011;29217;52.586;13.442;2023-12-04T03:22:38;15.98;;;8.98;;
43626;SDS011;29217;52.586;13.442;2023-12-04T03:25:04;18.02;;;9.23;;
43626;SDS011;29217;52.586;13.442;2023-12-04T03:27:30;17.98;;;7.38;;
43626;SDS011;29217;52.586;13.442;2023-12-04T03:29:56;21.65;;;8.57;;
43626;SDS011;29217;52.586;13.442;2023-12-04T03:32:22;16.48;;;9.05;;
43626;SDS011;29217;52.586;13.442;2023-12-04T03:34:48;22.83;;;8.45;;
43626;SDS011;29217;52.586;13.442;2023-12-04T03:37:14;15.90;;;7.82;;
43626;SDS011;29217;52.586;13.442;2023-12-04T03:39:40;12.38;;;7.38;;
43626;SDS011;29217;52.586;13.442;2023-12-04T03:42:06;14.52;;;7.40;;
43626;SDS011;29217;52.586;13.442;2023-12-04T03:44:32;11.95;;;6.78;;
43626;SDS011;29217;52.586;13.442;2023-12-04T03:46:58;18.33;;;9.48;;
43626;SDS011;29217;52.586;13.442;2023-12-04T03:49:24;15.40;;;7.25;;
43626;SDS011;29217;52.586;13.442;2023-12-04T03:51:50;22.33;;;8.10;;
43626;SDS011;29217;52.586;13.442;2023-12-04T03:54:16;20.45;;;8.88;;
43626;SDS011;29217;52.586;13.442;2023-12-04T03:56:42;23.63;;;9.27;;
43626;SDS011;29217;52.586;13.442;2023-12-04T03:59:08;14.05;;;7.90;;
43626;SDS011;29217;52.586;13.442;2023-12-04T04:01:35;22.92;;;8.48;;
43626;SDS011;29217;52.586;13.442;2023-12-04T04:04:01;21.25;;;8.73;;
43626;SDS011;29217;52.586;13.442;2023-12-04T04:06:27;14.15;;;6.80;;
43626;SDS011;29217;52.586;13.442;2023-12-04T04:08:53;29.50;;;11.65;;
43626;SDS011;29217;52.586;13.442;2023-12-04T04:11:19;48.70;;;17.38;;
43626;SDS011;29217;52.586;13.442;2023-12-04T04:13:45;87.53;;;30.13;;
43626;SDS011;29217;52.586;13.442;2023-12-04T04:16:15;75.63;;;29.35;;
43626;SDS011;29217;52.586;13.442;2023-12-04T04:18:41;54.33;;;22.80;;
43626;SDS011;29217;52.586;13.442;2023-12-04T04:21:08;50.85;;;18.98;;
43626;SDS011;29217;52.586;13.442;2023-12-04T04:23:34;30.80;;;15.15;;
43626;SDS011;29217;52.586;13.442;2023-12-04T04:26:00;24.92;;;11.38;;
43626;SDS011;29217;52.586;13.442;2023-12-04T04:28:26;31.83;;;9.98;;
43626;SDS011;29217;52.586;13.442;2023-12-04T04:30:52;20.05;;;9.00;;
43626;SDS011;29217;52.586;13.442;2023-12-04T04:33:18;15.73;;;8.65;;
43626;SDS011;29217;52.586;13.442;2023-12-04T04:35:44;19.77;;;8.88;;
43626;SDS011;29217;52.586;13.442;2023-12-04T04:38:10;19.67;;;10.02;;
43626;SDS011;29217;52.586;13.442;2023-12-04T04:40:36;18.63;;;8.90;;
43626;SDS011;29217;52.586;13.442;2023-12-04T04:43:06;23.67;;;10.05;;
43626;SDS011;29217;52.586;13.442;2023-12-04T04:45:32;16.75;;;6.68;;
43626;SDS011;29217;52.586;13.442;2023-12-04T04:47:58;18.10;;;9.00;;
43626;SDS011;29217;52.586;13.442;2023-12-04T04:50:24;33.10;;;9.38;;
43626;SDS011;29217;52.586;13.442;2023-12-04T04:52:50;18.63;;;9.10;;
43626;SDS011;29217;52.586;13.442;2023-12-04T04:55:16;18.75;;;9.40;;
43626;SDS011;29217;52.586;13.442;2023-12-04T04:57:42;23.08;;;9.30;;
43626;SDS011;29217;52.586;13.442;2023-12-04T05:00:08;28.83;;;10.45;;
43626;SDS011;29217;52.586;13.442;2023-12-04T05:02:34;27.92;;;9.95;;
43626;SDS011;29217;52.586;13.442;2023-12-04T05:05:02;15.40;;;9.23;;
43626;SDS011;29217;52.586;13.442;2023-12-04T05:07:28;25.50;;;11.43;;
43626;SDS011;29217;52.586;13.442;2023-12-04T05:09:54;24.08;;;10.05;;
43626;SDS011;29217;52.586;13.442;2023-12-04T05:12:20;22.23;;;9.18;;
43626;SDS011;29217;52.586;13.442;2023-12-04T05:14:46;23.25;;;8.63;;
43626;SDS011;29217;52.586;13.442;2023-12-04T05:17:12;18.85;;;7.65;;
43626;SDS011;29217;52.586;13.442;2023-12-04T05:19:38;15.82;;;7.63;;
43626;SDS011;29217;52.586;13.442;2023-12-04T05:22:04;17.92;;;7.50;;
43626;SDS011;29217;52.586;13.442;2023-12-04T05:24:30;17.65;;;8.32;;
43626;SDS011;29217;52.586;13.442;2023-12-04T05:26:56;22.42;;;8.05;;
43626;SDS011;29217;52.586;13.442;2023-12-04T05:29:22;16.30;;;8.02;;
43626;SDS011;29217;52.586;13.442;2023-12-04T05:31:48;14.32;;;7.53;;
43626;SDS011;29217;52.586;13.442;2023-12-04T05:34:14;19.25;;;7.57;;
43626;SDS011;29217;52.586;13.442;2023-12-04T05:36:40;16.90;;;8.68;;
43626;SDS011;29217;52.586;13.442;2023-12-04T05:39:06;15.90;;;8.82;;
43626;SDS011;29217;52.586;13.442;2023-12-04T05:41:32;13.38;;;7.80;;
43626;SDS011;29217;52.586;13.442;2023-12-04T05:43:58;22.55;;;7.28;;
43626;SDS011;29217;52.586;13.442;2023-12-04T05:46:24;17.73;;;6.90;;
43626;SDS011;29217;52.586;13.442;2023-12-04T05:48:50;19.05;;;9.88;;
43626;SDS011;29217;52.586;13.442;2023-12-04T05:51:16;18.85;;;8.23;;
43626;SDS011;29217;52.586;13.442;2023-12-04T05:53:42;14.48;;;6.20;;
43626;SDS011;29217;52.586;13.442;2023-12-04T05:56:08;15.48;;;7.57;;
43626;SDS011;29217;52.586;13.442;2023-12-04T05:58:34;15.73;;;8.02;;
43626;SDS011;29217;52.586;13.442;2023-12-04T06:01:00;14.65;;;7.20;;
43626;SDS011;29217;52.586;13.442;2023-12-04T06:03:27;14.05;;;7.97;;
43626;SDS011;29217;52.586;13.442;2023-12-04T06:05:53;10.85;;;7.05;;
43626;SDS011;29217;52.586;13.442;2023-12-04T06:08:19;16.58;;;6.72;;
43626;SDS011;29217;52.586;13.442;2023-12-04T06:10:45;17.90;;;8.13;;
43626;SDS011;29217;52.586;13.442;2023-12-04T06:13:11;13.50;;;7.43;;
43626;SDS011;29217;52.586;13.442;2023-12-04T06:15:37;19.02;;;7.93;;
43626;SDS011;29217;52.586;13.442;2023-12-04T06:18:03;20.60;;;8.75;;
43626;SDS011;29217;52.586;13.442;2023-12-04T06:20:29;15.25;;;8.82;;
43626;SDS011;29217;52.586;13.442;2023-12-04T06:22:55;19.90;;;8.25;;
43626;SDS011;29217;52.586;13.442;2023-12-04T06:25:22;15.60;;;7.68;;
43626;SDS011;29217;52.586;13.442;2023-12-04T06:27:48;17.83;;;8.15;;
43626;SDS011;29217;52.586;13.442;2023-12-04T06:30:14;20.85;;;10.18;;
43626;SDS011;29217;52.586;13.442;2023-12-04T06:32:40;17.38;;;8.52;;
43626;SDS011;29217;52.586;13.442;2023-12-04T06:35:06;19.77;;;9.88;;
43626;SDS011;29217;52.586;13.442;2023-12-04T06:37:32;18.65;;;8.60;;
43626;SDS011;29217;52.586;13.442;2023-12-04T06:39:59;26.52;;;10.30;;
43626;SDS011;29217;52.586;13.442;2023-12-04T06:42:27;26.27;;;11.77;;
43626;SDS011;29217;52.586;13.442;2023-12-04T06:44:53;25.63;;;10.77;;
43626;SDS011;29217;52.586;13.442;2023-12-04T06:47:22;23.77;;;10.13;;
43626;SDS011;29217;52.586;13.442;2023-12-04T06:49:48;19.13;;;9.15;;
43626;SDS011;29217;52.586;13.442;2023-12-04T06:52:14;21.02;;;10.23;;
43626;SDS011;29217;52.586;13.442;2023-12-04T06:54:40;19.20;;;9.02;;
43626;SDS011;29217;52.586;13.442;2023-12-04T06:57:06;27.05;;;9.43;;
43626;SDS011;29217;52.586;13.442;2023-12-04T06:59:33;17.98;;;8.18;;
43626;SDS011;29217;52.586;13.442;2023-12-04T07:01:59;21.75;;;8.95;;
43626;SDS011;29217;52.586;13.442;2023-12-04T07:04:24;18.63;;;8.85;;
43626;SDS011;29217;52.586;13.442;2023-12-04T07:06:50;25.38;;;8.43;;
43626;SDS011;29217;52.586;13.442;2023-12-04T07:09:16;20.02;;;8.18;;
43626;SDS011;29217;52.586;13.442;2023-12-04T07:11:43;18.45;;;9.25;;
43626;SDS011;29217;52.586;13.442;2023-12-04T07:14:09;19.85;;;9.18;;
43626;SDS011;29217;52.586;13.442;2023-12-04T07:16:41;20.60;;;9.73;;
43626;SDS011;29217;52.586;13.442;2023-12-04T07:19:08;22.90;;;8.90;;
43626;SDS011;29217;52.586;13.442;2023-12-04T07:21:34;22.73;;;9.18;;
43626;SDS011;29217;52.586;13.442;2023-12-04T07:24:00;24.08;;;9.80;;
43626;SDS011;29217;52.586;13.442;2023-12-04T07:26:26;24.30;;;9.35;;
43626;SDS011;29217;52.586;13.442;2023-12-04T07:28:53;31.38;;;11.32;;
43626;SDS011;29217;52.586;13.442;2023-12-04T07:31:19;19.88;;;8.98;;
43626;SDS011;29217;52.586;13.442;2023-12-04T07:33:45;19.67;;;8.88;;
43626;SDS011;29217;52.586;13.442;2023-12-04T07:36:11;14.10;;;7.32;;
43626;SDS011;29217;52.586;13.442;2023-12-04T07:38:37;18.63;;;8.90;;
43626;SDS011;29217;52.586;13.442;2023-12-04T07:41:03;25.00;;;10.45;;
43626;SDS011;29217;52.586;13.442;2023-12-04T07:43:29;20.83;;;9.90;;
43626;SDS011;29217;52.586;13.442;2023-12-04T07:45:55;30.23;;;10.70;;
43626;SDS011;29217;52.586;13.442;2023-12-04T07:48:22;26.33;;;9.70;;
43626;SDS011;29217;52.586;13.442;2023-12-04T07:50:48;17.17;;;10.05;;
43626;SDS011;29217;52.586;13.442;2023-12-04T07:53:14;21.15;;;10.02;;
43626;SDS011;29217;52.586;13.442;2023-12-04T07:55:40;16.67;;;8.45;;
43626;SDS011;29217;52.586;13.442;2023-12-04T07:58:06;21.73;;;9.65;;
43626;SDS011;29217;52.586;13.442;2023-12-04T08:00:32;17.65;;;8.48;;
43626;SDS011;29217;52.586;13.442;2023-12-04T08:02:58;26.27;;;10.25;;
43626;SDS011;29217;52.586;13.442;2023-12-04T08:05:24;18.45;;;9.18;;
43626;SDS011;29217;52.586;13.442;2023-12-04T08:07:52;17.67;;;8.98;;
43626;SDS011;29217;52.586;13.442;2023-12-04T08:10:18;17.73;;;8.60;;
43626;SDS011;29217;52.586;13.442;2023-12-04T08:12:44;23.65;;;10.63;;
43626;SDS011;29217;52.586;13.442;2023-12-04T08:15:11;27.20;;;11.73;;
43626;SDS011;29217;52.586;13.442;2023-12-04T08:17:37;28.45;;;12.75;;
43626;SDS011;29217;52.586;13.442;2023-12-04T08:20:03;21.48;;;9.77;;
43626;SDS011;29217;52.586;13.442;2023-12-04T08:22:29;21.25;;;9.32;;
43626;SDS011;29217;52.586;13.442;2023-12-04T08:24:56;21.50;;;10.18;;
43626;SDS011;29217;52.586;13.442;2023-12-04T08:27:23;20.88;;;9.02;;
43626;SDS011;29217;52.586;13.442;2023-12-04T08:29:49;22.48;;;9.77;;
43626;SDS011;29217;52.586;13.442;2023-12-04T08:32:15;26.73;;;10.02;;
43626;SDS011;29217;52.586;13.442;2023-12-04T08:34:41;24.08;;;8.40;;
43626;SDS011;29217;52.586;13.442;2023-12-04T08:37:07;21.88;;;9.88;;
43626;SDS011;29217;52.586;13.442;2023-12-04T08:39:33;23.05;;;9.05;;
43626;SDS011;29217;52.586;13.442;2023-12-04T08:41:59;20.63;;;9.63;;
43626;SDS011;29217;52.586;13.442;2023-12-04T08:44:25;23.02;;;10.70;;
43626;SDS011;29217;52.586;13.442;2023-12-04T08:46:52;17.77;;;8.07;;
43626;SDS011;29217;52.586;13.442;2023-12-04T08:49:18;20.15;;;9.82;;
43626;SDS011;29217;52.586;13.442;2023-12-04T08:51:44;18.83;;;8.85;;
43626;SDS011;29217;52.586;13.442;2023-12-04T08:54:10;20.63;;;9.55;;
43626;SDS011;29217;52.586;13.442;2023-12-04T08:56:36;21.35;;;10.23;;
43626;SDS011;29217;52.586;13.442;2023-12-04T08:59:02;18.20;;;8.80;;
43626;SDS011;29217;52.586;13.442;2023-12-04T09:01:28;18.17;;;7.97;;
43626;SDS011;29217;52.586;13.442;2023-12-04T09:03:54;20.98;;;9.25;;
43626;SDS011;29217;52.586;13.442;2023-12-04T09:06:21;19.85;;;8.60;;
43626;SDS011;29217;52.586;13.442;2023-12-04T09:08:47;26.75;;;9.25;;
43626;SDS011;29217;52.586;13.442;2023-12-04T09:11:13;16.23;;;9.00;;
43626;SDS011;29217;52.586;13.442;2023-12-04T09:13:39;22.27;;;8.90;;
43626;SDS011;29217;52.586;13.442;2023-12-04T09:16:05;16.73;;;7.63;;
43626;SDS011;29217;52.586;13.442;2023-12-04T09:18:33;18.40;;;8.15;;
43626;SDS011;29217;52.586;13.442;2023-12-04T09:20:59;24.20;;;9.05;;
43626;SDS011;29217;52.586;13.442;2023-12-04T09:23:25;18.95;;;7.70;;
43626;SDS011;29217;52.586;13.442;2023-12-04T09:25:51;21.50;;;9.30;;
43626;SDS011;29217;52.586;13.442;2023-12-04T09:28:18;15.60;;;7.75;;
43626;SDS011;29217;52.586;13.442;2023-12-04T09:30:44;24.52;;;8.80;;
43626;SDS011;29217;52.586;13.442;2023-12-04T09:33:10;18.27;;;8.00;;
43626;SDS011;29217;52.586;13.442;2023-12-04T09:35:36;19.65;;;9.35;;
43626;SDS011;29217;52.586;13.442;2023-12-04T09:38:02;20.85;;;9.23;;
43626;SDS011;29217;52.586;13.442;2023-12-04T09:40:28;24.10;;;9.38;;
43626;SDS011;29217;52.586;13.442;2023-12-04T09:42:54;21.83;;;9.20;;
43626;SDS011;29217;52.586;13.442;2023-12-04T09:45:20;20.77;;;10.18;;
43626;SDS011;29217;52.586;13.442;2023-12-04T09:47:49;19.13;;;8.68;;
43626;SDS011;29217;52.586;13.442;2023-12-04T09:50:15;22.15;;;8.90;;
43626;SDS011;29217;52.586;13.442;2023-12-04T09:52:47;19.85;;;8.32;;
43626;SDS011;29217;52.586;13.442;2023-12-04T09:55:15;20.48;;;9.30;;
43626;SDS011;29217;52.586;13.442;2023-12-04T09:57:42;18.38;;;9.52;;
43626;SDS011;29217;52.586;13.442;2023-12-04T10:00:09;16.23;;;7.95;;
43626;SDS011;29217;52.586;13.442;2023-12-04T10:02:36;25.45;;;10.10;;
43626;SDS011;29217;52.586;13.442;2023-12-04T10:05:03;17.65;;;8.23;;
43626;SDS011;29217;52.586;13.442;2023-12-04T10:07:30;17.33;;;8.82;;
43626;SDS011;29217;52.586;13.442;2023-12-04T10:09:56;25.38;;;9.68;;
43626;SDS011;29217;52.586;13.442;2023-12-04T10:12:22;24.92;;;9.27;;
43626;SDS011;29217;52.586;13.442;2023-12-04T10:17:34;19.70;;;7.75;;
43626;SDS011;29217;52.586;13.442;2023-12-04T10:20:09;19.10;;;7.97;;
43626;SDS011;29217;52.586;13.442;2023-12-04T10:25:37;14.07;;;6.70;;
43626;SDS011;29217;52.586;13.442;2023-12-04T10:28:07;19.70;;;8.73;;
43626;SDS011;29217;52.586;13.442;2023-12-04T10:30:33;21.63;;;9.35;;
43626;SDS011;29217;52.586;13.442;2023-12-04T10:33:02;20.42;;;8.77;;
43626;SDS011;29217;52.586;13.442;2023-12-04T10:35:31;17.17;;;8.02;;
43626;SDS011;29217;52.586;13.442;2023-12-04T10:37:58;15.95;;;7.90;;
43626;SDS011;29217;52.586;13.442;2023-12-04T10:40:30;17.48;;;7.05;;
43626;SDS011;29217;52.586;13.442;2023-12-04T10:45:35;19.23;;;7.18;;
43626;SDS011;29217;52.586;13.442;2023-12-04T10:48:03;15.45;;;7.15;;
43626;SDS011;29217;52.586;13.442;2023-12-04T10:50:35;12.93;;;7.07;;
43626;SDS011;29217;52.586;13.442;2023-12-04T10:53:03;16.23;;;8.05;;
43626;SDS011;29217;52.586;13.442;2023-12-04T10:55:30;20.77;;;7.18;;
43626;SDS011;29217;52.586;13.442;2023-12-04T10:57:56;14.68;;;7.28;;
43626;SDS011;29217;52.586;13.442;2023-12-04T11:00:22;15.63;;;6.88;;
43626;SDS011;29217;52.586;13.442;2023-12-04T11:02:49;17.55;;;6.82;;
43626;SDS011;29217;52.586;13.442;2023-12-04T11:05:16;14.38;;;7.15;;
43626;SDS011;29217;52.586;13.442;2023-12-04T11:08:08;12.60;;;6.70;;
43626;SDS011;29217;52.586;13.442;2023-12-04T11:10:33;14.60;;;7.07;;
43626;SDS011;29217;52.586;13.442;2023-12-04T11:13:02;14.25;;;7.15;;
43626;SDS011;29217;52.586;13.442;2023-12-04T11:15:29;13.32;;;6.70;;
43626;SDS011;29217;52.586;13.442;2023-12-04T11:17:58;14.93;;;6.53;;
43626;SDS011;29217;52.586;13.442;2023-12-04T11:20:27;12.10;;;6.32;;
43626;SDS011;29217;52.586;13.442;2023-12-04T11:22:55;15.32;;;6.90;;
43626;SDS011;29217;52.586;13.442;2023-12-04T11:25:23;16.02;;;6.85;;
43626;SDS011;29217;52.586;13.442;2023-12-04T11:27:50;12.43;;;6.32;;
43626;SDS011;29217;52.586;13.442;2023-12-04T11:30:17;13.77;;;6.88;;
43626;SDS011;29217;52.586;13.442;2023-12-04T11:32:46;11.68;;;5.85;;
43626;SDS011;29217;52.586;13.442;2023-12-04T11:35:17;14.27;;;6.47;;
43626;SDS011;29217;52.586;13.442;2023-12-04T11:37:44;12.63;;;6.60;;
43626;SDS011;29217;52.586;13.442;2023-12-04T11:40:14;9.65;;;5.57;;
43626;SDS011;29217;52.586;13.442;2023-12-04T11:42:41;13.95;;;7.10;;
43626;SDS011;29217;52.586;13.442;2023-12-04T11:45:07;17.52;;;6.35;;
43626;SDS011;29217;52.586;13.442;2023-12-04T11:50:15;14.55;;;7.93;;
43626;SDS011;29217;52.586;13.442;2023-12-04T11:52:42;40.42;;;19.67;;
43626;SDS011;29217;52.586;13.442;2023-12-04T11:55:08;15.05;;;6.65;;
43626;SDS011;29217;52.586;13.442;2023-12-04T11:57:34;17.45;;;7.70;;
43626;SDS011;29217;52.586;13.442;2023-12-04T12:02:47;15.02;;;6.60;;
43626;SDS011;29217;52.586;13.442;2023-12-04T12:05:14;17.05;;;8.85;;
43626;SDS011;29217;52.586;13.442;2023-12-04T12:07:40;15.63;;;7.15;;
43626;SDS011;29217;52.586;13.442;2023-12-04T12:10:07;15.05;;;7.35;;
43626;SDS011;29217;52.586;13.442;2023-12-04T12:12:33;13.48;;;7.43;;
43626;SDS011;29217;52.586;13.442;2023-12-04T12:15:01;16.05;;;7.50;;
43626;SDS011;29217;52.586;13.442;2023-12-04T12:17:27;7.47;;;4.10;;
43626;SDS011;29217;52.586;13.442;2023-12-04T12:19:53;12.00;;;5.90;;
43626;SDS011;29217;52.586;13.442;2023-12-04T12:22:22;14.10;;;6.85;;
43626;SDS011;29217;52.586;13.442;2023-12-04T12:24:48;13.20;;;6.32;;
43626;SDS011;29217;52.586;13.442;2023-12-04T12:27:14;21.17;;;12.50;;
43626;SDS011;29217;52.586;13.442;2023-12-04T12:29:40;29.08;;;14.20;;
43626;SDS011;29217;52.586;13.442;2023-12-04T12:32:06;14.93;;;8.77;;
43626;SDS011;29217;52.586;13.442;2023-12-04T12:34:32;9.85;;;5.47;;
43626;SDS011;29217;52.586;13.442;2023-12-04T12:37:01;12.10;;;6.88;;
43626;SDS011;29217;52.586;13.442;2023-12-04T12:39:28;10.43;;;5.32;;
43626;SDS011;29217;52.586;13.442;2023-12-04T12:41:54;10.05;;;5.32;;
43626;SDS011;29217;52.586;13.442;2023-12-04T12:44:20;11.07;;;4.88;;
43626;SDS011;29217;52.586;13.442;2023-12-04T12:46:47;14.20;;;6.28;;
43626;SDS011;29217;52.586;13.442;2023-12-04T12:49:14;9.30;;;4.68;;
43626;SDS011;29217;52.586;13.442;2023-12-04T12:51:42;12.60;;;5.32;;
43626;SDS011;29217;52.586;13.442;2023-12-04T12:54:08;13.07;;;6.38;;
43626;SDS011;29217;52.586;13.442;2023-12-04T12:56:34;13.43;;;7.18;;
43626;SDS011;29217;52.586;13.442;2023-12-04T12:59:00;9.88;;;5.60;;
43626;SDS011;29217;52.586;13.442;2023-12-04T13:01:30;10.90;;;5.38;;
43626;SDS011;29217;52.586;13.442;2023-12-04T13:03:57;12.88;;;5.57;;
43626;SDS011;29217;52.586;13.442;2023-12-04T13:06:23;10.88;;;5.70;;
43626;SDS011;29217;52.586;13.442;2023-12-04T13:08:49;13.02;;;5.60;;
43626;SDS011;29217;52.586;13.442;2023-12-04T13:11:15;12.82;;;6.35;;
43626;SDS011;29217;52.586;13.442;2023-12-04T13:13:41;11.65;;;5.88;;
43626;SDS011;29217;52.586;13.442;2023-12-04T13:16:07;16.98;;;6.07;;
43626;SDS011;29217;52.586;13.442;2023-12-04T13:18:33;11.25;;;5.88;;
43626;SDS011;29217;52.586;13.442;2023-12-04T13:21:01;8.13;;;5.35;;
43626;SDS011;29217;52.586;13.442;2023-12-04T13:23:27;9.27;;;5.05;;
43626;SDS011;29217;52.586;13.442;2023-12-04T13:25:53;11.30;;;5.55;;
43626;SDS011;29217;52.586;13.442;2023-12-04T13:28:19;7.55;;;5.05;;
43626;SDS011;29217;52.586;13.442;2023-12-04T13:30:45;15.88;;;6.78;;
43626;SDS011;29217;52.586;13.442;2023-12-04T13:33:11;11.02;;;5.55;;
43626;SDS011;29217;52.586;13.442;2023-12-04T13:35:37;12.15;;;5.40;;
43626;SDS011;29217;52.586;13.442;2023-12-04T13:38:03;12.85;;;5.97;;
43626;SDS011;29217;52.586;13.442;2023-12-04T13:40:37;9.60;;;4.93;;
43626;SDS011;29217;52.586;13.442;2023-12-04T13:43:04;13.98;;;5.97;;
43626;SDS011;29217;52.586;13.442;2023-12-04T13:45:48;10.77;;;5.60;;
43626;SDS011;29217;52.586;13.442;2023-12-04T13:48:14;9.43;;;5.32;;
43626;SDS011;29217;52.586;13.442;2023-12-04T13:50:40;9.98;;;5.13;;
43626;SDS011;29217;52.586;13.442;2023-12-04T13:53:06;11.93;;;5.85;;
43626;SDS011;29217;52.586;13.442;2023-12-04T13:55:33;11.52;;;5.57;;
43626;SDS011;29217;52.586;13.442;2023-12-04T13:58:11;11.27;;;5.97;;
43626;SDS011;29217;52.586;13.442;2023-12-04T14:00:57;10.90;;;5.45;;
43626;SDS011;29217;52.586;13.442;2023-12-04T14:03:23;10.40;;;5.45;;
43626;SDS011;29217;52.586;13.442;2023-12-04T14:05:49;14.20;;;6.28;;
43626;SDS011;29217;52.586;13.442;2023-12-04T14:08:15;13.50;;;5.78;;
43626;SDS011;29217;52.586;13.442;2023-12-04T14:10:41;13.10;;;6.03;;
43626;SDS011;29217;52.586;13.442;2023-12-04T14:13:07;12.75;;;6.00;;
43626;SDS011;29217;52.586;13.442;2023-12-04T14:15:33;11.52;;;6.07;;
43626;SDS011;29217;52.586;13.442;2023-12-04T14:17:59;12.60;;;6.65;;
43626;SDS011;29217;52.586;13.442;2023-12-04T14:20:25;11.05;;;5.32;;
43626;SDS011;29217;52.586;13.442;2023-12-04T14:22:51;12.43;;;6.43;;
43626;SDS011;29217;52.586;13.442;2023-12-04T14:25:17;12.65;;;6.38;;
43626;SDS011;29217;52.586;13.442;2023-12-04T14:27:43;12.70;;;6.25;;
43626;SDS011;29217;52.586;13.442;2023-12-04T14:30:10;11.50;;;6.97;;